Time;durP1;ratioP1;P1;durP2;ratioP2;P2;SDS_P1;SDS_P2;PMS_P1;PMS_P2;Temp;Humidity;BMP_temperature;BMP_pressure;BME280_temperature;BME280_humidity;BME280_pressure;Samples;Min_cycle;Max_cycle;Signal;HPM_P1;HPM_P2
2022/08/10 00:01:44;;;;;;;6.10;3.63;;;;;;;16.57;96.43;100095.03;5110222;28;20039;-53
2022/08/10 00:04:10;;;;;;;7.72;3.00;;;;;;;16.56;95.49;100095.94;5109870;28;20035;-52
2022/08/10 00:06:36;;;;;;;8.57;3.38;;;;;;;16.60;95.18;100101.91;5110344;28;20039;-52
2022/08/10 00:09:02;;;;;;;6.85;3.42;;;;;;;16.41;94.92;100073.97;5111004;28;20062;-54
2022/08/10 00:11:28;;;;;;;7.00;3.17;;;;;;;16.60;94.42;100109.78;5111082;28;20092;-53
2022/08/10 00:13:54;;;;;;;5.65;3.58;;;;;;;16.59;93.92;100103.69;5110825;28;20126;-53
2022/08/10 00:16:20;;;;;;;7.32;3.28;;;;;;;16.60;94.13;100107.16;5098492;28;20134;-50
2022/08/10 00:18:46;;;;;;;9.02;3.47;;;;;;;16.41;94.05;100076.59;5089613;28;20036;-54
2022/08/10 00:21:12;;;;;;;6.95;3.25;;;;;;;16.54;93.87;100103.91;5090342;28;20507;-53
2022/08/10 00:23:38;;;;;;;6.07;3.20;;;;;;;16.53;94.30;100107.47;5090396;28;20101;-51
2022/08/10 00:26:05;;;;;;;5.70;3.63;;;;;;;16.50;94.30;100106.75;5089134;28;20138;-55
2022/08/10 00:28:31;;;;;;;4.78;3.50;;;;;;;16.18;94.09;100049.84;5090383;28;20089;-54
2022/08/10 00:30:57;;;;;;;8.50;4.28;;;;;;;16.41;94.28;100099.38;5090481;28;20131;-53
2022/08/10 00:33:23;;;;;;;8.40;3.97;;;;;;;16.37;94.26;100101.31;5092046;28;20079;-52
2022/08/10 00:35:49;;;;;;;6.15;3.95;;;;;;;16.34;94.52;100108.47;5110475;28;20050;-52
2022/08/10 00:38:15;;;;;;;8.43;4.18;;;;;;;16.31;94.78;100106.88;5108714;28;20039;-51
2022/08/10 00:40:41;;;;;;;14.50;4.60;;;;;;;16.29;94.81;100108.72;5108498;28;20039;-51
2022/08/10 00:43:07;;;;;;;9.00;4.60;;;;;;;16.29;94.95;100110.50;5108383;28;20071;-49
2022/08/10 00:45:33;;;;;;;10.35;5.05;;;;;;;16.26;95.14;100106.25;5108535;28;20043;-51
2022/08/10 00:47:59;;;;;;;7.82;5.82;;;;;;;16.26;95.54;100105.41;5108782;28;20463;-53
2022/08/10 00:50:25;;;;;;;9.50;6.43;;;;;;;16.25;95.26;100112.44;5108683;28;20116;-50
2022/08/10 00:52:51;;;;;;;15.10;6.80;;;;;;;16.25;95.74;100109.81;5108577;28;20056;-54
2022/08/10 00:55:16;;;;;;;12.30;6.88;;;;;;;16.23;95.90;100110.78;5105213;28;20616;-50
2022/08/10 00:57:42;;;;;;;10.50;6.38;;;;;;;15.91;95.88;100052.13;5109199;28;20529;-52
2022/08/10 01:00:10;;;;;;;17.33;7.47;;;;;;;16.27;95.99;100109.75;5109002;28;20043;-49
2022/08/10 01:02:36;;;;;;;14.10;6.78;;;;;;;16.06;95.99;100074.94;5091790;28;20043;-53
2022/08/10 01:05:06;;;;;;;18.90;6.53;;;;;;;16.26;96.01;100108.03;5110301;28;20137;-51
2022/08/10 01:08:00;;;;;;;11.77;5.25;;;;;;;16.25;96.53;100109.81;5109296;28;20043;-53
2022/08/10 01:10:52;;;;;;;12.40;5.40;;;;;;;16.27;96.27;100109.75;5108663;28;20051;-54
2022/08/10 01:13:26;;;;;;;8.68;4.43;;;;;;;16.24;96.60;100105.47;5088724;28;20047;-51
2022/08/10 01:16:00;;;;;;;12.15;5.13;;;;;;;16.25;96.50;100101.94;5093699;28;20574;-49
2022/08/10 01:18:40;;;;;;;17.50;5.55;;;;;;;16.05;96.45;100070.63;5092353;28;20176;-54
2022/08/10 01:21:28;;;;;;;9.95;5.30;;;;;;;16.21;96.41;100104.78;5075699;28;20055;-50
2022/08/10 01:24:32;;;;;;;11.07;5.10;;;;;;;16.15;96.71;100105.09;5092214;28;20441;-50
2022/08/10 01:27:25;;;;;;;8.63;4.00;;;;;;;16.16;96.45;100110.28;5093511;28;20503;-50
2022/08/10 01:29:59;;;;;;;7.03;3.78;;;;;;;16.14;96.42;100099.00;5092273;28;20104;-53
2022/08/10 01:32:43;;;;;;;9.65;3.75;;;;;;;16.13;96.59;100107.78;5092175;28;20044;-52
2022/08/10 01:35:30;;;;;;;4.57;3.33;;;;;;;16.07;96.63;100097.59;5075247;28;20044;-55
2022/08/10 01:38:28;;;;;;;6.78;3.30;;;;;;;16.10;96.38;100100.94;5095449;28;20076;-51
2022/08/10 01:41:00;;;;;;;4.72;3.00;;;;;;;16.09;96.70;100101.84;5067864;28;20051;-50
2022/08/10 01:43:27;;;;;;;5.63;3.42;;;;;;;16.01;96.36;100090.91;5112457;28;20035;-52
2022/08/10 01:45:56;;;;;;;5.65;3.08;;;;;;;16.05;96.60;100104.72;5112269;28;20047;-54
2022/08/10 01:48:29;;;;;;;5.05;3.25;;;;;;;16.00;96.60;100104.94;5112337;28;20039;-53
2022/08/10 01:51:02;;;;;;;7.47;3.28;;;;;;;16.00;96.61;100115.44;5095698;28;20043;-54
2022/08/10 01:53:38;;;;;;;8.25;3.60;;;;;;;15.96;96.72;100110.44;5112693;28;20396;-52
2022/08/10 01:56:05;;;;;;;10.18;3.70;;;;;;;15.98;96.80;100126.91;5091942;28;20059;-53
2022/08/10 01:58:32;;;;;;;6.82;3.50;;;;;;;15.97;96.86;100114.72;5084066;28;20061;-55
2022/08/10 02:01:00;;;;;;;9.00;4.28;;;;;;;15.96;97.17;100113.88;5095035;28;20039;-54
2022/08/10 02:03:27;;;;;;;5.45;3.65;;;;;;;15.94;96.95;100113.13;5078420;28;20039;-55
2022/08/10 02:05:54;;;;;;;5.43;3.55;;;;;;;15.95;97.20;100112.19;5077989;28;20071;-53
2022/08/10 02:08:23;;;;;;;5.32;3.20;;;;;;;15.91;96.84;100107.19;5078056;28;20027;-54
2022/08/10 02:10:50;;;;;;;4.50;3.13;;;;;;;15.88;97.13;100116.03;5111842;28;20046;-53
2022/08/10 02:13:37;;;;;;;6.10;3.10;;;;;;;15.93;96.65;100124.53;5098024;28;20051;-50
2022/08/10 02:16:04;;;;;;;8.75;3.50;;;;;;;15.87;96.92;100119.56;5111752;28;20521;-50
2022/08/10 02:18:30;;;;;;;5.45;3.00;;;;;;;15.85;96.59;100124.06;5077809;28;20047;-51
2022/08/10 02:20:57;;;;;;;4.70;3.25;;;;;;;15.91;96.70;100130.78;5094707;28;20043;-52
2022/08/10 02:23:25;;;;;;;7.18;3.25;;;;;;;15.88;96.57;100131.78;5111601;28;20038;-53
2022/08/10 02:25:54;;;;;;;9.50;3.40;;;;;;;15.92;96.70;100135.94;5110940;28;20423;-53
2022/08/10 02:28:21;;;;;;;5.43;3.13;;;;;;;15.91;96.23;100136.84;5094540;28;20031;-51
2022/08/10 02:30:49;;;;;;;4.57;3.40;;;;;;;15.90;96.22;100134.31;5111520;28;20050;-48
2022/08/10 02:33:16;;;;;;;7.75;3.38;;;;;;;15.80;96.39;100122.59;5094395;28;20126;-53
2022/08/10 02:35:44;;;;;;;5.40;3.38;;;;;;;15.90;96.26;100134.31;5111008;28;20035;-50
2022/08/10 02:38:11;;;;;;;4.88;3.67;;;;;;;15.94;96.10;100136.72;5111144;28;20461;-54
2022/08/10 02:40:41;;;;;;;4.15;3.42;;;;;;;15.96;96.19;100128.78;5111389;28;20039;-50
2022/08/10 02:43:16;;;;;;;6.50;4.10;;;;;;;15.99;95.99;100132.09;5107646;28;20035;-52
2022/08/10 02:45:45;;;;;;;7.20;3.83;;;;;;;15.86;95.69;100109.19;5110695;28;20035;-53
2022/08/10 02:48:23;;;;;;;4.53;3.25;;;;;;;16.04;95.57;100137.13;5111239;28;20510;-52
2022/08/10 02:51:01;;;;;;;5.63;3.45;;;;;;;16.02;95.20;100137.19;5111109;28;20047;-51
2022/08/10 02:53:29;;;;;;;5.43;3.85;;;;;;;15.91;95.24;100115.88;5112196;28;20044;-52
2022/08/10 02:56:02;;;;;;;4.07;3.05;;;;;;;16.13;95.12;100135.78;5110926;28;20142;-51
2022/08/10 02:58:37;;;;;;;8.07;3.60;;;;;;;16.19;94.92;100133.72;5112015;28;20175;-49
2022/08/10 03:01:05;;;;;;;10.15;3.75;;;;;;;16.23;94.42;100143.13;5110665;28;20475;-49
2022/08/10 03:03:36;;;;;;;4.05;3.30;;;;;;;16.14;93.85;100106.03;5110885;28;20507;-53
2022/08/10 03:06:09;;;;;;;3.95;3.13;;;;;;;16.37;93.62;100134.56;5110790;28;20044;-51
2022/08/10 03:08:39;;;;;;;9.35;3.58;;;;;;;16.43;92.86;100140.34;5110731;28;20035;-51
2022/08/10 03:11:05;;;;;;;6.15;3.67;;;;;;;16.46;92.43;100134.09;5110632;28;20042;-54
2022/08/10 03:13:32;;;;;;;5.95;3.33;;;;;;;16.50;91.24;100133.88;5110720;28;20082;-49
2022/08/10 03:16:00;;;;;;;8.65;3.40;;;;;;;16.52;91.20;100136.41;5110616;28;20035;-54
2022/08/10 03:18:27;;;;;;;6.72;3.38;;;;;;;16.52;90.49;100132.03;5111591;28;20098;-52
2022/08/10 03:20:53;;;;;;;7.57;3.13;;;;;;;16.40;90.06;100116.03;5093468;28;20059;-52
2022/08/10 03:23:22;;;;;;;6.95;3.28;;;;;;;16.59;89.55;100143.06;5110419;28;20050;-51
2022/08/10 03:25:50;;;;;;;7.75;3.10;;;;;;;16.58;89.36;100135.25;5111669;28;20051;-52
2022/08/10 03:28:17;;;;;;;8.48;3.50;;;;;;;16.62;88.87;100140.28;5110350;28;20059;-52
2022/08/10 03:30:43;;;;;;;7.22;3.80;;;;;;;16.65;89.00;100140.13;5111355;28;20044;-49
2022/08/10 03:33:09;;;;;;;5.07;2.90;;;;;;;16.74;88.64;100141.44;5111587;28;20039;-51
2022/08/10 03:35:35;;;;;;;5.22;2.80;;;;;;;16.76;87.71;100132.53;5111290;28;20054;-53
2022/08/10 03:38:00;;;;;;;9.15;2.97;;;;;;;16.86;87.21;100146.03;5111340;28;20511;-52
2022/08/10 03:40:33;;;;;;;5.03;3.03;;;;;;;16.87;86.63;100132.81;5110203;28;20067;-51
2022/08/10 03:43:01;;;;;;;6.57;3.30;;;;;;;17.01;85.60;100147.84;5109915;28;20134;-50
2022/08/10 03:45:30;;;;;;;7.60;3.10;;;;;;;17.14;85.09;100156.78;5093143;28;20173;-48
2022/08/10 03:47:57;;;;;;;4.35;3.00;;;;;;;17.22;84.56;100148.47;5110110;28;20157;-54
2022/08/10 03:50:25;;;;;;;6.03;2.80;;;;;;;17.32;83.99;100147.06;5093164;28;20039;-53
2022/08/10 03:52:52;;;;;;;4.18;2.90;;;;;;;17.49;83.05;100154.84;5109595;28;20055;-51
2022/08/10 03:55:19;;;;;;;6.90;2.65;;;;;;;17.60;82.07;100160.41;5109900;28;20050;-52
2022/08/10 03:57:44;;;;;;;6.90;3.10;;;;;;;17.64;81.25;100153.19;5109646;28;20564;-53
2022/08/10 04:00:11;;;;;;;7.95;3.55;;;;;;;17.74;80.36;100159.66;5109770;28;20043;-51
2022/08/10 04:02:37;;;;;;;8.13;3.83;;;;;;;17.65;79.74;100118.91;5092787;28;20035;-53
2022/08/10 04:05:03;;;;;;;7.18;3.47;;;;;;;17.66;79.08;100096.09;5109629;28;20510;-54
2022/08/10 04:07:29;;;;;;;4.63;2.80;;;;;;;18.12;78.35;100146.91;5110928;28;20542;-53
2022/08/10 04:09:55;;;;;;;5.85;2.80;;;;;;;18.13;77.55;100149.47;5109713;28;20031;-51
2022/08/10 04:12:21;;;;;;;4.90;2.85;;;;;;;18.13;77.37;100152.09;5109618;28;20047;-52
2022/08/10 04:14:47;;;;;;;6.35;3.47;;;;;;;18.10;77.15;100144.41;5110719;28;20410;-54
2022/08/10 04:17:13;;;;;;;7.22;2.80;;;;;;;18.14;77.13;100145.06;5109416;28;20047;-50
2022/08/10 04:19:47;;;;;;;6.10;2.80;;;;;;;18.16;76.66;100140.56;5110686;28;20055;-53
2022/08/10 04:22:15;;;;;;;8.77;4.00;;;;;;;18.14;76.53;100135.38;5110964;28;20860;-49
2022/08/10 04:24:42;;;;;;;8.00;3.78;;;;;;;18.14;76.52;100151.16;5110730;28;20533;-53
2022/08/10 04:27:08;;;;;;;6.90;3.92;;;;;;;17.95;76.26;100100.53;5110319;28;20044;-50
2022/08/10 04:29:34;;;;;;;9.40;2.80;;;;;;;18.16;76.09;100133.50;5109503;28;20054;-51
2022/08/10 04:32:02;;;;;;;6.05;2.30;;;;;;;18.36;75.49;100155.19;5103968;28;20036;-55
2022/08/10 04:34:31;;;;;;;3.97;2.70;;;;;;;18.45;74.90;100158.13;5090390;28;20044;-52
2022/08/10 04:36:58;;;;;;;;;;;;;;;18.62;74.59;100154.53;5104467;28;20041;-54
2022/08/10 04:39:23;;;;;;;4.05;2.47;;;;;;;18.78;73.92;100164.97;5092401;28;19955;-53
2022/08/10 04:41:49;;;;;;;4.35;2.47;;;;;;;18.98;73.06;100156.72;5109325;28;20514;-54
2022/08/10 04:44:15;;;;;;;2.35;2.00;;;;;;;19.22;72.33;100160.44;5109593;28;20058;-53
2022/08/10 04:46:43;;;;;;;4.30;2.25;;;;;;;19.37;71.36;100163.91;5109383;28;20043;-52
2022/08/10 04:49:08;;;;;;;5.25;2.55;;;;;;;19.48;70.73;100158.84;5111893;28;20042;-53
2022/08/10 04:51:34;;;;;;;8.38;2.72;;;;;;;19.64;70.49;100159.56;5114438;28;20052;-54
2022/08/10 04:54:00;;;;;;;5.32;2.28;;;;;;;19.72;69.91;100169.63;5096516;28;20152;-50
2022/08/10 04:56:26;;;;;;;5.63;2.10;;;;;;;19.82;69.35;100154.91;5114439;28;20032;-49
2022/08/10 04:58:52;;;;;;;11.35;2.72;;;;;;;19.85;69.00;100152.06;5114299;28;20046;-55
2022/08/10 05:01:18;;;;;;;4.35;2.50;;;;;;;19.68;68.88;100118.84;5114213;28;20571;-54
2022/08/10 05:03:44;;;;;;;6.00;1.90;;;;;;;19.91;68.53;100169.28;5113060;28;20537;-50
2022/08/10 05:06:10;;;;;;;4.20;2.00;;;;;;;19.96;68.16;100175.97;5113683;28;20418;-54
2022/08/10 05:08:35;;;;;;;5.97;2.00;;;;;;;19.98;67.94;100183.78;5114288;28;20043;-51
2022/08/10 05:11:01;;;;;;;7.85;2.05;;;;;;;19.77;67.86;100130.63;5112886;28;20047;-53
2022/08/10 05:13:28;;;;;;;6.47;2.33;;;;;;;20.15;67.55;100176.44;5095983;28;20035;-55
2022/08/10 05:15:53;;;;;;;8.02;2.50;;;;;;;20.25;67.23;100174.06;5095743;28;20047;-51
2022/08/10 05:18:19;;;;;;;10.88;2.38;;;;;;;20.33;66.85;100165.66;5113984;28;20028;-52
2022/08/10 05:20:45;;;;;;;10.75;2.33;;;;;;;20.39;66.32;100157.31;5114013;28;20051;-50
2022/08/10 05:23:11;;;;;;;5.28;2.25;;;;;;;20.47;66.05;100169.03;5113970;28;20092;-53
2022/08/10 05:25:37;;;;;;;3.83;2.10;;;;;;;20.35;65.99;100135.56;5113525;28;20499;-54
2022/08/10 05:28:06;;;;;;;3.45;2.10;;;;;;;20.52;65.77;100156.38;5113860;28;20057;-52
2022/08/10 05:30:33;;;;;;;4.28;2.10;;;;;;;20.58;65.75;100155.13;5113860;28;20047;-54
2022/08/10 05:32:58;;;;;;;14.27;6.88;;;;;;;20.66;65.56;100155.44;5112731;28;20096;-54
2022/08/10 05:35:25;;;;;;;5.03;2.17;;;;;;;20.73;65.15;100154.91;5113552;28;20043;-55
2022/08/10 05:37:51;;;;;;;11.43;2.83;;;;;;;20.77;65.17;100150.28;5113544;28;20050;-53
2022/08/10 05:40:18;;;;;;;11.35;2.15;;;;;;;20.81;65.29;100148.25;5112456;28;20035;-53
2022/08/10 05:42:44;;;;;;;8.07;2.60;;;;;;;20.73;65.07;100154.06;5113695;28;20435;-53
2022/08/10 05:45:25;;;;;;;11.30;2.88;;;;;;;20.66;65.33;100145.72;5113604;28;20043;-53
2022/08/10 05:47:51;;;;;;;23.52;3.70;;;;;;;20.58;65.56;100150.69;5112333;28;20047;-55
2022/08/10 05:50:20;;;;;;;11.80;2.28;;;;;;;20.52;65.70;100152.88;5113315;28;20522;-54
2022/08/10 05:52:46;;;;;;;;;;;;;;;20.47;65.79;100158.47;5112299;28;20431;-54
2022/08/10 05:55:12;;;;;;;6.60;1.88;;;;;;;20.45;65.80;100156.91;5113229;28;19916;-53
2022/08/10 05:57:38;;;;;;;7.55;2.40;;;;;;;20.49;65.49;100164.50;5111869;28;20100;-53
2022/08/10 06:00:09;;;;;;;6.10;2.35;;;;;;;20.45;65.72;100139.25;5112135;28;20043;-52
2022/08/10 06:02:42;;;;;;;16.67;2.92;;;;;;;20.82;65.26;100164.03;5118699;27;20071;-53
2022/08/10 06:05:09;;;;;;;5.50;2.03;;;;;;;21.06;64.50;100167.59;5118863;27;20047;-55
2022/08/10 06:07:59;;;;;;;6.00;2.85;;;;;;;21.25;63.94;100166.34;5112889;28;20031;-53
2022/08/10 06:10:27;;;;;;;4.63;2.10;;;;;;;21.35;63.72;100170.88;5075179;27;20572;-54
2022/08/10 06:15:39;;;;;;;4.30;2.63;;;;;;;21.57;63.05;100180.75;5111833;28;20062;-51
2022/08/10 06:18:05;;;;;;;8.63;3.00;;;;;;;21.66;62.82;100192.50;5094315;28;20039;-50
2022/08/10 06:20:31;;;;;;;32.60;4.00;;;;;;;21.84;62.21;100186.69;5107438;28;20108;-53
2022/08/10 06:23:02;;;;;;;29.95;3.63;;;;;;;22.15;61.46;100180.03;5111796;28;20511;-52
2022/08/10 06:25:29;;;;;;;3.58;2.15;;;;;;;22.44;60.65;100182.31;5111599;28;20582;-54
2022/08/10 06:27:56;;;;;;;9.82;2.30;;;;;;;22.71;59.68;100183.75;5112791;28;20510;-55
2022/08/10 06:30:23;;;;;;;6.75;2.03;;;;;;;23.07;58.37;100190.66;5108367;28;20067;-54
2022/08/10 06:32:50;;;;;;;6.22;1.80;;;;;;;23.96;56.23;100198.56;5091128;28;20126;-55
2022/08/10 06:35:17;;;;;;;4.25;1.83;;;;;;;24.39;54.73;100201.19;5091895;28;20054;-52
2022/08/10 06:37:43;;;;;;;5.05;1.45;;;;;;;25.02;52.84;100206.56;5112583;28;20590;-53
2022/08/10 06:40:10;;;;;;;4.18;1.48;;;;;;;25.82;50.69;100187.94;5094316;28;20130;-54
2022/08/10 06:42:40;;;;;;;2.60;1.70;;;;;;;27.04;48.63;100212.25;5090639;28;20044;-55
2022/08/10 06:45:11;;;;;;;4.03;1.67;;;;;;;28.16;46.18;100222.69;5057349;28;20039;-52
2022/08/10 06:48:05;;;;;;;1.80;1.60;;;;;;;29.28;43.27;100216.56;5108555;28;20059;-53
2022/08/10 06:50:36;;;;;;;2.97;1.58;;;;;;;30.27;41.19;100209.53;5112069;28;20051;-56
2022/08/10 06:53:09;;;;;;;4.50;1.75;;;;;;;30.60;40.01;100217.66;5110743;28;20522;-56
2022/08/10 06:55:35;;;;;;;6.47;1.65;;;;;;;31.58;38.51;100213.78;5093906;28;20048;-55
2022/08/10 06:58:01;;;;;;;3.15;1.55;;;;;;;32.61;36.03;100214.28;5110661;28;20050;-55
2022/08/10 07:00:28;;;;;;;3.75;1.50;;;;;;;33.48;34.27;100219.00;5109581;28;20047;-58
2022/08/10 07:02:56;;;;;;;2.40;1.70;;;;;;;34.28;32.69;100201.94;5110421;28;20119;-56
2022/08/10 07:05:25;;;;;;;3.63;1.45;;;;;;;34.23;31.54;100183.59;5087330;28;20051;-57
2022/08/10 07:07:54;;;;;;;2.17;1.65;;;;;;;34.84;30.62;100200.13;5111630;28;20036;-55
2022/08/10 07:10:22;;;;;;;2.90;1.50;;;;;;;35.70;29.44;100206.09;5110123;28;20096;-58
2022/08/10 07:12:49;;;;;;;6.95;1.88;;;;;;;36.45;28.48;100181.47;5087861;28;20511;-57
2022/08/10 07:15:17;;;;;;;8.80;3.97;;;;;;;37.45;27.90;100210.13;5067699;28;20455;-57
2022/08/10 07:17:44;;;;;;;10.52;2.13;;;;;;;38.09;26.26;100212.81;5113748;27;20039;-58
2022/08/10 07:20:17;;;;;;;6.00;3.70;;;;;;;38.53;25.33;100218.16;5109681;28;20049;-57
2022/08/10 07:22:46;;;;;;;3.00;1.92;;;;;;;39.04;24.68;100213.53;5088063;28;20032;-58
2022/08/10 07:25:15;;;;;;;5.78;2.90;;;;;;;38.56;24.67;100219.59;5107868;28;20047;-57
2022/08/10 07:27:41;;;;;;;1.95;1.85;;;;;;;37.85;24.84;100208.09;5110727;28;20601;-57
2022/08/10 07:30:07;;;;;;;3.70;2.92;;;;;;;37.40;25.36;100201.81;5106502;28;20126;-58
2022/08/10 07:32:33;;;;;;;1.80;1.70;;;;;;;38.28;24.29;100200.13;5088098;28;20121;-57
2022/08/10 07:35:00;;;;;;;5.80;1.98;;;;;;;38.64;23.29;100203.00;5109412;28;20483;-58
2022/08/10 07:37:28;;;;;;;3.13;1.83;;;;;;;39.28;22.92;100207.19;5104191;28;20130;-54
2022/08/10 07:39:54;;;;;;;1.85;1.63;;;;;;;40.08;22.01;100208.72;5106099;28;20079;-57
2022/08/10 07:42:23;;;;;;;4.68;1.90;;;;;;;41.02;21.01;100209.72;5110667;28;20130;-57
2022/08/10 07:44:49;;;;;;;3.03;2.75;;;;;;;41.74;20.12;100215.66;5086434;28;20050;-57
2022/08/10 07:47:18;;;;;;;2.22;2.05;;;;;;;42.07;19.49;100212.22;5101062;28;20097;-57
2022/08/10 07:49:46;;;;;;;2.88;2.17;;;;;;;42.18;19.10;100201.25;5109863;28;20506;-57
2022/08/10 07:52:12;;;;;;;;;;;;;;;42.81;19.35;100212.97;5110195;28;20059;-56
2022/08/10 07:54:40;;;;;;;10.40;6.10;;;;;;;42.73;18.88;100207.91;5106516;28;19926;-57
2022/08/10 07:57:10;;;;;;;8.50;3.03;;;;;;;42.88;18.39;100205.41;5107930;28;20040;-57
2022/08/10 07:59:38;;;;;;;3.55;2.20;;;;;;;41.60;18.88;100209.66;5107327;28;20138;-57
2022/08/10 08:02:06;;;;;;;5.03;1.50;;;;;;;40.85;19.54;100182.34;5092507;28;20039;-57
2022/08/10 08:04:33;;;;;;;5.80;3.47;;;;;;;39.67;20.72;100200.47;5106084;28;20047;-55
2022/08/10 08:07:02;;;;;;;19.48;15.88;;;;;;;40.33;20.16;100191.41;5107834;28;20051;-55
2022/08/10 08:09:28;;;;;;;18.48;12.70;;;;;;;41.17;19.89;100199.19;5094724;28;20044;-56
2022/08/10 08:11:55;;;;;;;5.55;2.50;;;;;;;41.85;18.79;100174.66;5090660;28;20044;-57
2022/08/10 08:14:21;;;;;;;5.03;3.30;;;;;;;42.54;18.56;100191.75;5076217;28;20051;-58
2022/08/10 08:16:50;;;;;;;4.47;2.30;;;;;;;42.56;17.62;100191.47;5090897;28;20040;-57
2022/08/10 08:19:16;;;;;;;4.53;2.80;;;;;;;42.47;17.97;100168.38;5107924;28;20032;-58
2022/08/10 08:21:43;;;;;;;3.63;1.95;;;;;;;41.67;18.30;100176.72;5108820;28;20048;-57
2022/08/10 08:24:10;;;;;;;2.95;2.30;;;;;;;41.56;18.42;100178.44;5091379;28;20104;-57
2022/08/10 08:26:36;;;;;;;3.80;2.20;;;;;;;42.16;17.31;100183.41;5110331;28;20067;-57
2022/08/10 08:29:02;;;;;;;2.15;1.95;;;;;;;42.67;16.54;100171.41;5109953;28;20050;-57
2022/08/10 08:31:28;;;;;;;2.83;2.55;;;;;;;43.23;16.19;100170.34;5109402;28;20517;-57
2022/08/10 08:33:55;;;;;;;6.63;4.47;;;;;;;43.94;16.03;100167.63;5105929;28;20126;-57
2022/08/10 08:36:21;;;;;;;6.43;2.67;;;;;;;44.45;15.65;100166.16;5104988;28;20046;-57
2022/08/10 08:38:47;;;;;;;3.50;2.40;;;;;;;44.36;15.46;100156.78;5108775;28;20114;-57
2022/08/10 08:41:50;;;;;;;3.40;2.60;;;;;;;44.78;14.81;100173.28;5108372;28;20044;-57
2022/08/10 08:44:58;;;;;;;2.95;2.60;;;;;;;45.14;14.53;100175.16;5106613;28;20111;-57
2022/08/10 08:47:52;;;;;;;3.38;3.05;;;;;;;45.53;14.21;100173.69;5076153;28;20043;-56
2022/08/10 08:50:36;;;;;;;4.05;3.25;;;;;;;45.96;14.25;100177.06;5107603;28;20044;-56
2022/08/10 08:53:21;;;;;;;11.73;5.80;;;;;;;45.33;14.61;100178.25;5109551;28;20074;-57
2022/08/10 08:55:52;;;;;;;5.95;4.22;;;;;;;45.32;14.91;100173.84;5106146;28;20055;-58
2022/08/10 08:58:26;;;;;;;3.60;2.58;;;;;;;45.81;13.89;100166.06;5090972;28;20043;-56
2022/08/10 09:00:58;;;;;;;3.65;2.08;;;;;;;45.92;13.29;100163.06;5108357;28;20047;-56
2022/08/10 09:03:33;;;;;;;3.15;2.92;;;;;;;45.08;14.60;100157.81;5107125;28;20138;-56
2022/08/10 09:06:10;;;;;;;4.10;2.60;;;;;;;44.24;14.72;100143.19;5109818;28;20067;-57
2022/08/10 09:09:04;;;;;;;6.75;1.88;;;;;;;42.81;15.87;100148.13;5108585;28;20165;-57
2022/08/10 09:11:29;;;;;;;6.20;3.10;;;;;;;42.49;16.51;100144.34;5109723;28;20514;-58
2022/08/10 09:13:58;;;;;;;7.28;4.40;;;;;;;43.68;15.79;100147.31;5109546;28;20051;-56
2022/08/10 09:16:47;;;;;;;4.03;1.73;;;;;;;43.80;15.37;100145.25;5109520;28;20499;-56
2022/08/10 09:19:24;;;;;;;6.28;1.83;;;;;;;42.93;15.70;100142.53;5105614;28;20040;-54
2022/08/10 09:21:55;;;;;;;5.88;3.10;;;;;;;43.47;15.38;100127.91;5091651;28;20067;-55
2022/08/10 09:24:42;;;;;;;6.70;1.98;;;;;;;42.88;15.63;100139.72;5108546;28;20052;-56
2022/08/10 09:27:10;;;;;;;;;;;;;;;41.76;16.46;100131.59;5110449;28;20046;-56
2022/08/10 09:29:44;;;;;;;2.35;1.30;;;;;;;41.01;16.72;100131.66;5108203;28;19920;-56
2022/08/10 09:32:14;;;;;;;3.42;2.28;;;;;;;40.61;17.43;100126.13;5108546;28;20035;-57
2022/08/10 09:35:18;;;;;;;7.95;4.57;;;;;;;41.05;17.55;100135.59;5092444;28;20473;-56
2022/08/10 09:37:58;;;;;;;3.80;3.03;;;;;;;41.57;17.02;100132.84;5098388;28;20050;-57
2022/08/10 09:40:44;;;;;;;9.10;4.60;;;;;;;41.27;17.08;100124.84;5111849;28;20423;-56
2022/08/10 09:43:20;;;;;;;3.22;1.85;;;;;;;40.55;18.28;100121.59;5112468;28;20047;-57
2022/08/10 09:45:58;;;;;;;3.65;2.10;;;;;;;40.52;17.53;100120.16;5113364;28;20050;-57
2022/08/10 09:48:27;;;;;;;7.07;3.40;;;;;;;41.65;17.09;100121.53;5113415;28;20632;-57
2022/08/10 09:51:18;;;;;;;4.25;2.10;;;;;;;42.04;16.71;100114.31;5089339;28;20529;-57
2022/08/10 09:54:20;;;;;;;4.80;1.83;;;;;;;41.77;16.95;100114.91;5111280;28;20524;-57
2022/08/10 09:57:02;;;;;;;9.07;6.63;;;;;;;41.67;17.14;100127.56;5110596;28;20035;-56
2022/08/10 09:59:44;;;;;;;11.52;5.57;;;;;;;42.29;16.04;100117.53;5081957;28;20047;-57
2022/08/10 10:02:45;;;;;;;4.82;3.30;;;;;;;41.90;16.66;100126.66;5111373;28;20046;-55
2022/08/10 10:05:24;;;;;;;3.47;1.80;;;;;;;42.00;16.34;100122.19;5110475;28;20396;-56
2022/08/10 10:07:57;;;;;;;3.33;2.22;;;;;;;41.51;16.74;100117.47;5111967;28;20063;-57
2022/08/10 10:10:45;;;;;;;4.63;3.03;;;;;;;40.54;17.28;100107.16;5111260;28;20511;-55
2022/08/10 10:13:17;;;;;;;2.25;1.60;;;;;;;40.27;17.06;100097.78;5090925;28;20385;-58
2022/08/10 10:16:05;;;;;;;6.07;2.70;;;;;;;41.08;16.25;100123.38;5076054;28;20031;-57
2022/08/10 10:19:09;;;;;;;4.15;1.77;;;;;;;40.11;17.14;100120.22;5111212;28;20036;-56
2022/08/10 10:21:44;;;;;;;7.97;2.17;;;;;;;40.47;17.34;100114.59;5109793;28;20085;-58
2022/08/10 10:24:35;;;;;;;4.93;3.50;;;;;;;41.12;16.85;100119.09;5109756;28;20039;-57
2022/08/10 10:27:20;;;;;;;2.58;2.10;;;;;;;41.20;16.93;100116.81;5109613;28;20541;-55
2022/08/10 10:29:57;;;;;;;2.10;1.60;;;;;;;40.66;16.81;100118.09;5112394;28;20046;-56
2022/08/10 10:32:29;;;;;;;2.25;1.90;;;;;;;40.57;17.38;100112.09;5112471;28;20039;-58
2022/08/10 10:35:00;;;;;;;2.10;1.70;;;;;;;40.00;17.54;100086.44;5110892;28;20097;-56
2022/08/10 10:37:26;;;;;;;2.67;1.52;;;;;;;40.04;16.84;100111.34;5093814;28;20042;-56
2022/08/10 10:39:54;;;;;;;1.52;1.40;;;;;;;40.48;16.91;100115.44;5092437;28;20127;-55
2022/08/10 10:42:38;;;;;;;4.00;2.10;;;;;;;41.64;16.29;100100.75;5111608;28;20032;-57
2022/08/10 10:45:18;;;;;;;2.33;2.13;;;;;;;42.82;15.82;100102.44;5109763;28;20046;-56
2022/08/10 10:48:12;;;;;;;8.98;1.60;;;;;;;41.61;16.02;100110.28;5075895;28;20128;-55
2022/08/10 10:50:53;;;;;;;4.13;1.30;;;;;;;40.26;16.89;100106.19;5101577;28;20051;-57
2022/08/10 10:53:37;;;;;;;3.30;1.48;;;;;;;39.61;18.06;100106.09;5107195;28;20056;-56
2022/08/10 10:56:08;;;;;;;3.63;1.75;;;;;;;39.71;18.03;100098.22;5111015;28;20047;-56
2022/08/10 10:58:52;;;;;;;2.15;1.70;;;;;;;39.87;17.87;100094.84;5109472;28;20508;-56
2022/08/10 11:01:21;;;;;;;4.50;1.65;;;;;;;39.69;17.79;100090.25;5076695;28;20039;-59
2022/08/10 11:03:56;;;;;;;3.13;2.10;;;;;;;40.13;17.39;100086.25;5105261;28;20527;-56
2022/08/10 11:06:42;;;;;;;2.65;1.50;;;;;;;41.58;16.52;100099.84;5110585;28;20566;-57
2022/08/10 11:09:13;;;;;;;5.05;1.73;;;;;;;42.07;16.86;100090.06;5111197;28;20058;-57
2022/08/10 11:11:40;;;;;;;2.72;1.60;;;;;;;41.49;16.50;100073.19;5073178;28;20040;-57
2022/08/10 11:14:24;;;;;;;2.65;1.95;;;;;;;41.85;16.73;100095.41;5086678;28;20061;-57
2022/08/10 11:16:59;;;;;;;6.50;1.95;;;;;;;42.41;15.54;100096.38;5107090;28;20122;-58
2022/08/10 11:20:07;;;;;;;4.72;1.30;;;;;;;43.09;15.67;100095.16;5109874;28;20035;-57
2022/08/10 11:23:12;;;;;;;2.15;1.67;;;;;;;43.48;15.81;100094.00;5111337;28;20039;-57
2022/08/10 11:25:41;;;;;;;1.80;1.40;;;;;;;43.38;15.91;100082.91;5065003;28;20043;-55
2022/08/10 11:28:13;;;;;;;1.63;1.40;;;;;;;43.00;16.21;100102.13;5110153;28;20535;-57
2022/08/10 11:30:54;;;;;;;2.85;1.58;;;;;;;42.54;15.82;100051.44;5109537;28;20043;-57
2022/08/10 11:33:43;;;;;;;2.15;1.15;;;;;;;41.11;16.20;100084.69;5109934;28;20051;-57
2022/08/10 11:36:34;;;;;;;1.83;1.02;;;;;;;40.10;16.73;100088.59;5109762;28;20040;-56
2022/08/10 11:39:19;;;;;;;3.15;1.65;;;;;;;40.90;16.51;100084.25;5093048;28;20046;-57
2022/08/10 11:41:50;;;;;;;3.38;2.08;;;;;;;42.10;15.88;100092.31;5111081;28;20055;-57
2022/08/10 11:44:16;;;;;;;2.10;1.90;;;;;;;43.55;15.32;100095.72;5109845;28;20434;-57
2022/08/10 11:46:51;;;;;;;2.25;2.13;;;;;;;44.66;14.62;100078.25;5110145;28;20036;-57
2022/08/10 11:49:25;;;;;;;2.80;2.30;;;;;;;45.40;14.49;100088.16;5109204;28;20175;-58